Delray Beach, FL

6:11 PM EDT on April 25, 2015 (GMT -0400)
Delray Beach | | Change Station
CLOSE
Current Station
Personal Weather Station
Location: Delray Beach, FL
Elevation: 30 ft
Nearby Weather Stations

Elev 30 ft 26.47 °N, 80.09 °W | Updated 1 second ago

Partly Cloudy
Partly Cloudy
84.6 °F
Feels Like 97 °F
N
3.2
Wind Variable Wind from South
Gusts 6.3 mph

Today
High -- | Low -- °F
--% Chance of Precip.
Yesterday
High -- | Low -- °F
Precip. -- in
6:47 AM 7:49 PM
Waxing Crescent, 49% visible
Pressure 29.84 in
Visibility 5.0 miles
Clouds Scattered Clouds 3800 ft
Mostly Cloudy 5000 ft
Mostly Cloudy 7500 ft
Heat Index 97 °F
Dew Point 79 °F
Humidity 83%
Rainfall 0.00 in
Snow Depth Not available.
UV 1 out of 12
Pollen 7.60 out of 12
Air Quality Not available.
Flu Activity Local Activity
METAR KPMP 252153Z 18006KT 5SM -RA SCT038 BKN050 BKN075 28/24 A2984 RMK AO2 RAB21 SLP105 P0000 T02830244

More Conditions Fewer Conditions

Pressure 29.84 in
Visibility 5.0 miles
Clouds Scattered Clouds 3800 ft
Mostly Cloudy 5000 ft
Mostly Cloudy 7500 ft
Heat Index 97 °F
Dew Point 79 °F
Humidity 83%
Rainfall 0.00 in
Snow Depth Not available.
UV 1 out of 12
Pollen 7.60 out of 12
Air Quality Not available.
Flu Activity Local Activity
METAR KPMP 252153Z 18006KT 5SM -RA SCT038 BKN050 BKN075 28/24 A2984 RMK AO2 RAB21 SLP105 P0000 T02830244

More Conditions Fewer Conditions

10-Day Weather Forecast

Almanac

Astronomy

Apr. 25, 2015 Rise Set
Actual Time
Civil Twilight
Nautical Twilight
Astronomical Twilight
Moon
Length of Visible Light
Length of Day
Tomorrow will be .
, % of the Moon is Illuminated

Today's Extremes

State Highs State Lows

Community

WunderPhotos

Upload Photos

1,816,827 photos uploaded!

WunderBlogs® & News

Nearby

Air Quality

  Air Quality AQ Index Pollutant
Not available.

Snow Depth

Station Depth Elevation

Earthquake Activity

City Distance Mag. Time & Date
Minimum magnitude displayed is 2.5.

Coastal Water Temperatures

Place Temperature

Stations

Nearby Weather Stations

Station Location Temp. Windchill Dew Point Humidity Wind Precip. Elev Updated Type